createdAt,value
2016-11-16T00:00:59.309Z,0
2016-11-16T00:02:12.891Z,0
2016-11-16T00:03:25.384Z,0
2016-11-16T00:04:39.034Z,0
2016-11-16T00:05:50.957Z,0
2016-11-16T00:07:04.462Z,0
2016-11-16T00:08:16.988Z,0
2016-11-16T00:09:30.015Z,0
2016-11-16T00:10:42.515Z,0
2016-11-16T00:11:55.037Z,0
2016-11-16T00:13:06.945Z,0
2016-11-16T00:14:19.959Z,0
2016-11-16T00:15:32.451Z,0
2016-11-16T00:16:45.010Z,0
2016-11-16T00:17:57.443Z,0
2016-11-16T00:19:08.403Z,0
2016-11-16T00:20:21.481Z,0
2016-11-16T00:21:34.508Z,0
2016-11-16T00:22:47.501Z,0
2016-11-16T00:24:01.137Z,0
2016-11-16T00:25:13.675Z,0
2016-11-16T00:26:25.657Z,0
2016-11-16T00:27:39.222Z,0
2016-11-16T00:28:52.224Z,0
2016-11-16T00:30:04.113Z,0
2016-11-16T00:31:47.176Z,0
2016-11-16T00:34:44.243Z,0
2016-11-16T00:35:56.183Z,0
2016-11-16T00:37:09.219Z,0
2016-11-16T00:38:21.180Z,0
2016-11-16T00:39:33.104Z,0
2016-11-16T00:40:46.128Z,0
2016-11-16T00:41:59.662Z,0
2016-11-16T00:43:13.206Z,0
2016-11-16T00:44:56.326Z,0
2016-11-16T00:46:08.293Z,0
2016-11-16T00:47:21.318Z,0
2016-11-16T00:48:34.321Z,0
2016-11-16T00:49:46.807Z,0
2016-11-16T00:50:59.893Z,0
2016-11-16T00:52:11.931Z,0
2016-11-16T00:53:24.984Z,0
2016-11-16T00:54:38.017Z,0
2016-11-16T00:55:50.559Z,0
2016-11-16T00:57:03.626Z,0
2016-11-16T00:58:16.697Z,0
2016-11-16T00:59:29.749Z,0
2016-11-16T01:00:42.222Z,0
2016-11-16T01:01:54.693Z,0
2016-11-16T01:03:07.750Z,0
2016-11-16T01:04:20.767Z,0
2016-11-16T01:05:33.755Z,0
2016-11-16T01:06:46.776Z,0
2016-11-16T01:07:58.745Z,0
2016-11-16T01:09:12.284Z,0
2016-11-16T01:10:25.332Z,0
2016-11-16T01:11:37.814Z,0
2016-11-16T01:12:50.898Z,0
2016-11-16T01:14:04.514Z,0
2016-11-16T01:15:17.018Z,0
2016-11-16T01:16:30.589Z,0
2016-11-16T01:17:44.077Z,0
2016-11-16T01:18:56.587Z,0
2016-11-16T01:20:09.580Z,0
2016-11-16T01:21:23.095Z,0
2016-11-16T01:22:36.163Z,0
2016-11-16T01:23:48.188Z,0
2016-11-16T01:25:01.213Z,0
2016-11-16T01:26:13.703Z,0
2016-11-16T01:27:27.301Z,0
2016-11-16T01:28:39.794Z,0
2016-11-16T01:29:53.376Z,0
2016-11-16T01:31:06.378Z,0
2016-11-16T01:32:18.819Z,0
2016-11-16T01:35:14.788Z,0
2016-11-16T01:36:27.314Z,0
2016-11-16T01:37:39.207Z,0
2016-11-16T01:38:52.228Z,0
2016-11-16T01:40:04.700Z,0
2016-11-16T01:41:16.666Z,0
2016-11-16T01:42:29.671Z,0
2016-11-16T01:43:43.520Z,0
2016-11-16T01:44:55.037Z,0
2016-11-16T01:46:07.517Z,0
2016-11-16T01:47:19.483Z,0
2016-11-16T01:48:32.058Z,0
2016-11-16T01:49:44.488Z,0
2016-11-16T01:50:57.513Z,0
2016-11-16T01:52:08.961Z,0
2016-11-16T01:53:21.459Z,0
2016-11-16T01:54:33.431Z,0
2016-11-16T01:55:45.943Z,0
2016-11-16T01:56:58.994Z,0
2016-11-16T01:58:11.969Z,0
2016-11-16T01:59:24.963Z,0
2016-11-16T02:00:38.588Z,0
2016-11-16T02:01:51.579Z,0
2016-11-16T02:03:04.575Z,0
2016-11-16T02:04:16.540Z,0
2016-11-16T02:05:28.981Z,0
2016-11-16T02:06:41.934Z,0
2016-11-16T02:07:54.376Z,0
2016-11-16T02:09:06.297Z,0
2016-11-16T02:10:18.809Z,0
2016-11-16T02:11:31.299Z,0
2016-11-16T02:12:43.305Z,0
2016-11-16T02:13:55.217Z,0
2016-11-16T02:15:08.783Z,0
2016-11-16T02:16:21.279Z,0
2016-11-16T02:17:33.820Z,0
2016-11-16T02:18:46.269Z,0
2016-11-16T02:19:59.306Z,0
2016-11-16T02:21:12.392Z,0
2016-11-16T02:22:25.910Z,0
2016-11-16T02:23:38.385Z,0
2016-11-16T02:24:50.333Z,0
2016-11-16T02:26:03.394Z,0
2016-11-16T02:27:15.338Z,0
2016-11-16T02:28:27.884Z,0
2016-11-16T02:29:39.860Z,0
2016-11-16T02:30:52.906Z,0
2016-11-16T02:32:04.892Z,0
2016-11-16T02:33:17.896Z,0
2016-11-16T02:34:30.433Z,0
2016-11-16T02:35:42.955Z,0
2016-11-16T02:36:54.403Z,0
2016-11-16T02:38:07.358Z,0
2016-11-16T02:39:20.931Z,0
2016-11-16T02:40:34.494Z,0
2016-11-16T02:41:47.023Z,0
2016-11-16T02:42:59.455Z,0
2016-11-16T02:44:11.379Z,0
2016-11-16T02:45:24.367Z,0
2016-11-16T02:46:37.339Z,0
2016-11-16T02:47:49.948Z,0
2016-11-16T02:49:03.468Z,0
2016-11-16T02:50:16.018Z,0
2016-11-16T02:51:28.533Z,0
2016-11-16T02:52:40.473Z,0
2016-11-16T02:53:51.903Z,0
2016-11-16T02:55:04.372Z,0
2016-11-16T02:56:17.441Z,0
2016-11-16T02:57:29.397Z,0
2016-11-16T02:58:41.367Z,0
2016-11-16T02:59:53.949Z,0
2016-11-16T03:01:07.489Z,0
2016-11-16T03:02:20.595Z,0
2016-11-16T03:03:33.622Z,0
2016-11-16T03:04:46.578Z,0
2016-11-16T03:06:00.109Z,0
2016-11-16T03:07:12.037Z,0
2016-11-16T03:08:25.699Z,0
2016-11-16T03:09:38.700Z,0
2016-11-16T03:10:52.180Z,0
2016-11-16T03:13:47.738Z,0
2016-11-16T03:15:01.271Z,0
2016-11-16T03:16:14.774Z,0
2016-11-16T03:17:27.268Z,0
2016-11-16T03:18:39.731Z,0
2016-11-16T03:19:52.224Z,0
2016-11-16T03:21:05.294Z,0
2016-11-16T03:22:18.370Z,0
2016-11-16T03:23:30.305Z,0
2016-11-16T03:24:42.826Z,0
2016-11-16T03:25:55.361Z,0
2016-11-16T03:27:08.427Z,0
2016-11-16T03:28:21.421Z,0
2016-11-16T03:29:34.985Z,0
2016-11-16T03:30:46.967Z,0
2016-11-16T03:31:58.907Z,0
2016-11-16T03:33:12.489Z,0
2016-11-16T03:34:26.115Z,0
2016-11-16T03:35:39.135Z,0
2016-11-16T03:36:52.695Z,0
2016-11-16T03:38:06.297Z,0
2016-11-16T03:39:19.300Z,0
2016-11-16T03:40:31.302Z,0
2016-11-16T03:41:44.290Z,0
2016-11-16T03:42:56.807Z,0
2016-11-16T03:44:09.773Z,0
2016-11-16T03:45:22.273Z,0
2016-11-16T03:46:34.747Z,0
2016-11-16T03:47:47.798Z,0
2016-11-16T03:49:00.869Z,0
2016-11-16T03:50:13.905Z,0
2016-11-16T03:51:26.882Z,0
2016-11-16T03:52:39.902Z,0
2016-11-16T03:53:51.840Z,0
2016-11-16T03:55:05.456Z,0
2016-11-16T03:56:18.530Z,0
2016-11-16T03:57:31.025Z,0
2016-11-16T03:58:43.472Z,0
2016-11-16T03:59:55.461Z,0
2016-11-16T04:01:08.516Z,0
2016-11-16T04:02:21.587Z,0
2016-11-16T04:03:33.020Z,0
2016-11-16T04:04:46.051Z,0
2016-11-16T04:05:59.603Z,0
2016-11-16T04:07:12.646Z,0
2016-11-16T04:08:26.173Z,0
2016-11-16T04:09:38.691Z,0
2016-11-16T04:10:52.182Z,0
2016-11-16T04:12:05.238Z,0
2016-11-16T04:13:17.238Z,0
2016-11-16T04:14:29.739Z,0
2016-11-16T04:15:43.332Z,0
2016-11-16T04:16:55.227Z,0
2016-11-16T04:18:08.696Z,0
2016-11-16T04:19:21.698Z,0
2016-11-16T04:20:34.711Z,0
2016-11-16T04:21:48.307Z,0
2016-11-16T04:22:59.756Z,0
2016-11-16T04:24:12.788Z,0
2016-11-16T04:25:25.235Z,0
2016-11-16T04:26:38.308Z,0
2016-11-16T04:27:50.814Z,0
2016-11-16T04:29:04.361Z,0
2016-11-16T04:30:16.878Z,0
2016-11-16T04:31:29.912Z,0
2016-11-16T04:32:42.956Z,0
2016-11-16T04:33:54.882Z,0
2016-11-16T04:35:07.903Z,0
2016-11-16T04:36:20.361Z,0
2016-11-16T04:37:33.344Z,0
2016-11-16T04:38:45.298Z,0
2016-11-16T04:39:57.792Z,0
2016-11-16T04:41:10.836Z,0
2016-11-16T04:42:23.374Z,0
2016-11-16T04:43:35.972Z,0
2016-11-16T04:44:49.503Z,0
2016-11-16T04:46:02.581Z,0
2016-11-16T04:47:14.521Z,0
2016-11-16T04:48:27.031Z,0
2016-11-16T04:49:39.583Z,0
2016-11-16T04:50:52.077Z,0
2016-11-16T04:52:05.103Z,0
2016-11-16T04:53:17.620Z,0
2016-11-16T04:54:31.207Z,0
2016-11-16T04:55:43.719Z,0
2016-11-16T04:56:55.142Z,0
2016-11-16T04:58:08.086Z,0
2016-11-16T04:59:20.609Z,0
2016-11-16T05:00:33.139Z,0
2016-11-16T05:01:45.686Z,0
2016-11-16T05:02:58.235Z,0
2016-11-16T05:04:11.822Z,0
2016-11-16T05:05:25.355Z,0
2016-11-16T05:06:38.284Z,0
2016-11-16T05:07:51.303Z,0
2016-11-16T05:09:04.362Z,0
2016-11-16T05:10:16.880Z,0
2016-11-16T05:11:30.402Z,0
2016-11-16T05:12:43.919Z,0
2016-11-16T05:13:56.830Z,0
2016-11-16T05:15:09.773Z,0
2016-11-16T05:16:22.801Z,0
2016-11-16T05:17:34.736Z,0
2016-11-16T05:18:48.250Z,0
2016-11-16T05:20:00.759Z,0
2016-11-16T05:21:13.261Z,0
2016-11-16T05:22:25.733Z,0
2016-11-16T05:23:38.244Z,0
2016-11-16T05:24:50.767Z,0
2016-11-16T05:26:03.244Z,0
2016-11-16T05:27:15.713Z,0
2016-11-16T05:28:28.705Z,0
2016-11-16T05:29:40.662Z,0
2016-11-16T05:30:53.266Z,0
2016-11-16T05:32:05.767Z,0
2016-11-16T05:33:18.188Z,0
2016-11-16T05:34:31.216Z,0
2016-11-16T05:35:44.299Z,0
2016-11-16T05:36:57.379Z,0
2016-11-16T05:38:10.368Z,0
2016-11-16T05:39:23.856Z,0
2016-11-16T05:40:36.887Z,0
2016-11-16T05:41:48.315Z,0
2016-11-16T05:43:01.305Z,0
2016-11-16T05:44:13.284Z,0
2016-11-16T05:45:26.853Z,0
2016-11-16T05:46:39.883Z,0
2016-11-16T05:47:53.346Z,0
2016-11-16T05:49:05.816Z,0
2016-11-16T05:50:50.443Z,0
2016-11-16T05:52:03.919Z,0
2016-11-16T05:53:17.468Z,0
2016-11-16T05:54:29.949Z,0
2016-11-16T05:55:43.450Z,0
2016-11-16T05:56:56.987Z,0
2016-11-16T05:58:09.990Z,0
2016-11-16T05:59:22.454Z,0
2016-11-16T06:00:35.968Z,0
2016-11-16T06:01:48.519Z,0
2016-11-16T06:03:01.586Z,0
2016-11-16T06:04:14.061Z,0
2016-11-16T06:05:27.117Z,0
2016-11-16T06:06:40.117Z,0
2016-11-16T06:07:53.122Z,0
2016-11-16T06:09:06.693Z,0
2016-11-16T06:10:19.753Z,0
2016-11-16T06:11:32.261Z,0
2016-11-16T06:12:45.317Z,0
2016-11-16T06:13:58.359Z,0
2016-11-16T06:15:10.826Z,0
2016-11-16T06:16:23.897Z,0
2016-11-16T06:17:37.435Z,0
2016-11-16T06:18:49.388Z,0
2016-11-16T06:20:02.419Z,0
2016-11-16T06:21:15.416Z,0
2016-11-16T06:22:27.881Z,0
2016-11-16T06:23:40.408Z,0
2016-11-16T06:24:53.437Z,0
2016-11-16T06:26:06.479Z,0
2016-11-16T06:27:18.921Z,0
2016-11-16T06:28:32.445Z,0
2016-11-16T06:29:45.993Z,0
2016-11-16T06:30:58.981Z,0
2016-11-16T06:32:11.463Z,0
2016-11-16T06:33:23.966Z,0
2016-11-16T06:34:36.525Z,0
2016-11-16T06:35:50.139Z,0
2016-11-16T06:37:03.173Z,0
2016-11-16T06:38:16.200Z,0
2016-11-16T06:39:29.728Z,0
2016-11-16T06:40:41.693Z,0
2016-11-16T06:41:54.656Z,0
2016-11-16T06:43:07.133Z,0
2016-11-16T06:44:19.651Z,0
2016-11-16T06:45:31.049Z,0
2016-11-16T06:46:44.113Z,0
2016-11-16T06:47:57.616Z,0
2016-11-16T06:49:11.195Z,0
2016-11-16T06:50:24.255Z,0
2016-11-16T06:51:37.220Z,0
2016-11-16T06:52:50.737Z,0
2016-11-16T06:54:04.323Z,0
2016-11-16T06:55:16.852Z,0
2016-11-16T06:56:28.279Z,0
2016-11-16T06:57:41.865Z,0
2016-11-16T06:58:54.320Z,0
2016-11-16T07:00:07.863Z,0
2016-11-16T07:01:20.898Z,0
2016-11-16T07:02:34.461Z,0
2016-11-16T07:03:48.021Z,0
2016-11-16T07:05:00.524Z,0
2016-11-16T07:06:12.470Z,0
2016-11-16T07:07:25.470Z,0
2016-11-16T07:08:38.934Z,0
2016-11-16T07:09:52.436Z,0
2016-11-16T07:11:04.954Z,0
2016-11-16T07:12:17.474Z,0
2016-11-16T07:13:29.987Z,0
2016-11-16T07:15:14.662Z,0
2016-11-16T07:16:27.159Z,0
2016-11-16T07:17:40.725Z,0
2016-11-16T07:18:54.309Z,0
2016-11-16T07:20:07.897Z,0
2016-11-16T07:21:20.868Z,0
2016-11-16T07:22:34.433Z,0
2016-11-16T07:23:46.950Z,0
2016-11-16T07:24:58.962Z,0
2016-11-16T07:26:11.909Z,0
2016-11-16T07:27:24.378Z,0
2016-11-16T07:28:37.372Z,0
2016-11-16T07:29:49.908Z,0
2016-11-16T07:31:02.932Z,0
2016-11-16T07:32:16.254Z,0
2016-11-16T07:33:59.831Z,0
2016-11-16T07:35:11.822Z,0
2016-11-16T07:36:25.389Z,0
2016-11-16T07:37:38.981Z,0
2016-11-16T07:38:51.603Z,0
2016-11-16T07:40:04.670Z,0
2016-11-16T07:41:16.164Z,0
2016-11-16T07:42:29.206Z,0
2016-11-16T07:43:42.744Z,0
2016-11-16T07:44:55.255Z,0
2016-11-16T07:46:07.218Z,0
2016-11-16T07:47:20.305Z,0
2016-11-16T07:48:33.826Z,0
2016-11-16T07:49:46.889Z,0
2016-11-16T07:50:59.345Z,0
2016-11-16T07:53:57.621Z,0
2016-11-16T07:55:10.093Z,4
2016-11-16T07:56:22.048Z,0
2016-11-16T07:57:34.500Z,4
2016-11-16T07:58:47.551Z,8
2016-11-16T08:00:00.641Z,8
2016-11-16T08:01:13.168Z,12
2016-11-16T08:02:24.608Z,12
2016-11-16T08:03:38.165Z,20
2016-11-16T08:04:51.173Z,24
2016-11-16T08:06:03.733Z,32
2016-11-16T08:07:17.323Z,40
2016-11-16T08:08:29.840Z,48
2016-11-16T08:09:42.912Z,60
2016-11-16T08:10:56.451Z,76
2016-11-16T08:12:09.474Z,92
2016-11-16T08:13:22.000Z,96
2016-11-16T08:14:35.015Z,104
2016-11-16T08:15:47.539Z,112
2016-11-16T08:17:00.562Z,124
2016-11-16T08:18:13.551Z,136
2016-11-16T08:19:25.019Z,144
2016-11-16T08:20:37.489Z,156
2016-11-16T08:21:50.529Z,164
2016-11-16T08:23:03.041Z,176
2016-11-16T08:24:15.526Z,188
2016-11-16T08:25:28.526Z,200
2016-11-16T08:26:40.940Z,220
2016-11-16T08:27:53.974Z,252
2016-11-16T08:29:06.982Z,280
2016-11-16T08:30:19.464Z,316
2016-11-16T08:31:32.557Z,336
2016-11-16T08:32:45.108Z,396
2016-11-16T08:33:58.127Z,484
2016-11-16T08:35:10.126Z,516
2016-11-16T08:36:22.609Z,604
2016-11-16T08:37:35.616Z,892
2016-11-16T08:38:48.718Z,1128
2016-11-16T08:40:32.845Z,1620
2016-11-16T08:41:44.846Z,2068
2016-11-16T08:42:56.899Z,2852
2016-11-16T08:44:09.893Z,4180
2016-11-16T08:45:22.924Z,7320
2016-11-16T08:46:35.942Z,8808
2016-11-16T08:47:48.450Z,7992
2016-11-16T08:49:00.387Z,7320
2016-11-16T08:50:13.981Z,6776
2016-11-16T08:51:27.484Z,6652
2016-11-16T08:52:40.494Z,8168
2016-11-16T08:53:53.535Z,10052
2016-11-16T08:55:06.062Z,11936
2016-11-16T08:56:19.122Z,17600
2016-11-16T08:57:31.641Z,16608
2016-11-16T08:58:44.114Z,9048
2016-11-16T08:59:57.121Z,6712
2016-11-16T09:01:09.600Z,5400
2016-11-16T09:02:21.577Z,5280
2016-11-16T09:03:35.075Z,5564
2016-11-16T09:04:47.067Z,6356
2016-11-16T09:06:00.057Z,6928
2016-11-16T09:07:11.951Z,6948
2016-11-16T09:08:24.365Z,7168
2016-11-16T09:09:36.830Z,7704
2016-11-16T09:10:49.879Z,7640
2016-11-16T09:12:03.443Z,8216
2016-11-16T09:13:15.431Z,8072
2016-11-16T09:14:28.504Z,10812
2016-11-16T09:15:41.520Z,7844
2016-11-16T09:16:54.007Z,7504
2016-11-16T09:18:06.437Z,8204
2016-11-16T09:19:19.477Z,8932
2016-11-16T09:20:33.046Z,10452
2016-11-16T09:21:45.558Z,14912
2016-11-16T09:22:58.195Z,15388
2016-11-16T09:24:11.270Z,12704
2016-11-16T09:25:24.378Z,18304
2016-11-16T09:26:37.954Z,18272
2016-11-16T09:27:50.459Z,22848
2016-11-16T09:29:04.040Z,21792
2016-11-16T09:30:17.576Z,28448
2016-11-16T09:31:30.588Z,25312
2016-11-16T09:32:43.660Z,20576
2016-11-16T09:33:57.240Z,16576
2016-11-16T09:35:09.786Z,16576
2016-11-16T09:36:21.692Z,18208
2016-11-16T09:37:33.736Z,17760
2016-11-16T09:38:46.272Z,17920
2016-11-16T09:39:59.355Z,21056
2016-11-16T09:41:43.975Z,20768
2016-11-16T09:42:56.535Z,18912
2016-11-16T09:44:09.038Z,21856
2016-11-16T09:45:22.070Z,22944
2016-11-16T09:46:34.061Z,20608
2016-11-16T09:47:47.030Z,18400
2016-11-16T09:48:59.616Z,18016
2016-11-16T09:50:12.069Z,18336
2016-11-16T09:51:24.568Z,16000
2016-11-16T09:52:37.583Z,16832
2016-11-16T09:53:50.070Z,17472
2016-11-16T09:55:02.574Z,16928
2016-11-16T09:56:15.640Z,15340
2016-11-16T09:57:28.718Z,15292
2016-11-16T09:58:41.748Z,15328
2016-11-16T10:01:40.013Z,17184
2016-11-16T10:02:53.544Z,18240
2016-11-16T10:04:06.554Z,21664
2016-11-16T10:05:20.021Z,24224
2016-11-16T10:06:32.979Z,22208
2016-11-16T10:07:46.029Z,24352
2016-11-16T10:08:58.508Z,29664
2016-11-16T10:10:12.089Z,33792
2016-11-16T10:11:24.598Z,33760
2016-11-16T10:12:37.599Z,34976
2016-11-16T10:13:50.614Z,38560
2016-11-16T10:15:02.641Z,47296
2016-11-16T10:16:15.167Z,71680
2016-11-16T10:17:27.707Z,81888
2016-11-16T10:18:40.780Z,51520
2016-11-16T10:19:53.506Z,46048
2016-11-16T10:21:06.102Z,59840
2016-11-16T10:22:19.153Z,71360
2016-11-16T10:23:32.253Z,41888
2016-11-16T10:24:44.750Z,59776
2016-11-16T10:25:57.924Z,57472
2016-11-16T10:27:10.971Z,62048
2016-11-16T10:28:24.548Z,54816
2016-11-16T10:29:36.011Z,58880
2016-11-16T10:30:49.572Z,66016
2016-11-16T10:32:02.041Z,79776
2016-11-16T10:33:15.125Z,79712
2016-11-16T10:34:27.614Z,78528
2016-11-16T10:35:40.155Z,80064
2016-11-16T10:36:52.660Z,79808
2016-11-16T10:38:05.665Z,75616
2016-11-16T10:39:18.216Z,72736
2016-11-16T10:40:30.715Z,71808
2016-11-16T10:41:43.751Z,71168
2016-11-16T10:42:56.809Z,69792
2016-11-16T10:44:09.861Z,68192
2016-11-16T10:45:22.366Z,68768
2016-11-16T10:46:35.462Z,68224
2016-11-16T10:47:48.982Z,70240
2016-11-16T10:49:02.017Z,69760
2016-11-16T10:50:14.599Z,71584
2016-11-16T10:51:27.591Z,72032
2016-11-16T10:52:41.174Z,73536
2016-11-16T10:53:53.734Z,71520
2016-11-16T10:55:07.353Z,70944
2016-11-16T10:56:20.431Z,68480
2016-11-16T10:57:32.894Z,68832
2016-11-16T10:58:45.400Z,68768
2016-11-16T10:59:57.918Z,64352
2016-11-16T11:01:10.381Z,63424
2016-11-16T11:02:22.899Z,65312
2016-11-16T11:03:36.022Z,67296
2016-11-16T11:04:49.605Z,67008
2016-11-16T11:06:01.559Z,56640
2016-11-16T11:07:14.076Z,37536
2016-11-16T11:08:27.111Z,44224
2016-11-16T11:09:39.634Z,40160
2016-11-16T11:10:52.614Z,46016
2016-11-16T11:12:06.160Z,45440
2016-11-16T11:13:19.793Z,58432
2016-11-16T11:14:32.904Z,59392
2016-11-16T11:15:45.911Z,64512
2016-11-16T11:16:58.433Z,57568
2016-11-16T11:18:10.894Z,64640
2016-11-16T11:19:22.931Z,62592
2016-11-16T11:20:36.530Z,61600
2016-11-16T11:21:49.065Z,59168
2016-11-16T11:23:01.581Z,60544
2016-11-16T11:24:14.119Z,59904
2016-11-16T11:25:27.130Z,59872
2016-11-16T11:26:40.739Z,58976
2016-11-16T11:28:24.932Z,57856
2016-11-16T11:29:37.376Z,57088
2016-11-16T11:30:49.887Z,33664
2016-11-16T11:32:02.994Z,56768
2016-11-16T11:34:59.167Z,56000
2016-11-16T11:36:12.200Z,55776
2016-11-16T11:37:23.736Z,55776
2016-11-16T11:38:37.315Z,54240
2016-11-16T11:39:49.889Z,51968
2016-11-16T11:41:03.625Z,51520
2016-11-16T11:42:16.168Z,51712
2016-11-16T11:43:29.110Z,51744
2016-11-16T11:44:42.169Z,50720
2016-11-16T11:45:54.761Z,50240
2016-11-16T11:47:07.275Z,50656
2016-11-16T11:48:19.849Z,49792
2016-11-16T11:49:32.336Z,49056
2016-11-16T11:50:45.388Z,47680
2016-11-16T11:51:57.909Z,50080
2016-11-16T11:53:10.982Z,50304
2016-11-16T11:54:24.055Z,46784
2016-11-16T11:55:36.599Z,46016
2016-11-16T11:56:49.712Z,46080
2016-11-16T11:58:02.228Z,45920
2016-11-16T11:59:15.318Z,45696
2016-11-16T12:00:28.349Z,45664
2016-11-16T12:01:41.541Z,44608
2016-11-16T12:02:54.070Z,43520
2016-11-16T12:04:06.590Z,42464
2016-11-16T12:06:21.905Z,41472
2016-11-16T12:07:35.416Z,41088
2016-11-16T12:08:48.969Z,40000
2016-11-16T12:10:01.994Z,39072
2016-11-16T12:11:15.063Z,40128
2016-11-16T12:12:58.686Z,40320
2016-11-16T12:14:11.759Z,38752
2016-11-16T12:15:24.240Z,37792
2016-11-16T12:16:37.811Z,37376
2016-11-16T12:17:51.379Z,36960
2016-11-16T12:19:04.368Z,37056
2016-11-16T12:20:17.922Z,36672
2016-11-16T12:21:30.970Z,34208
2016-11-16T12:22:44.558Z,34592
2016-11-16T12:23:57.562Z,34496
2016-11-16T12:25:10.626Z,33376
2016-11-16T12:26:24.221Z,32736
2016-11-16T12:27:37.740Z,32576
2016-11-16T12:28:50.801Z,32768
2016-11-16T12:30:03.777Z,31232
2016-11-16T12:31:15.733Z,31456
2016-11-16T12:32:28.166Z,31616
2016-11-16T12:33:41.274Z,30432
2016-11-16T12:34:54.299Z,29920
2016-11-16T12:36:06.761Z,28032
2016-11-16T12:37:50.938Z,11188
2016-11-16T12:39:04.501Z,28608
2016-11-16T12:40:17.573Z,6764
2016-11-16T12:41:31.073Z,9736
2016-11-16T12:42:44.654Z,28608
2016-11-16T12:43:57.167Z,26336
2016-11-16T12:45:10.218Z,25984
2016-11-16T12:46:23.768Z,25312
2016-11-16T12:47:37.328Z,25856
2016-11-16T12:48:49.832Z,25056
2016-11-16T12:50:02.866Z,24384
2016-11-16T12:51:15.919Z,18496
2016-11-16T12:52:28.952Z,23584
2016-11-16T12:53:41.440Z,22592
2016-11-16T12:54:54.519Z,22208
2016-11-16T12:56:06.455Z,21600
2016-11-16T12:57:19.512Z,21440
2016-11-16T12:58:32.516Z,21120
2016-11-16T12:59:44.444Z,20480
2016-11-16T13:00:57.488Z,20256
2016-11-16T13:02:10.524Z,19808
2016-11-16T13:03:24.082Z,19968
2016-11-16T13:04:36.583Z,19872
2016-11-16T13:05:48.566Z,19360
2016-11-16T13:07:02.138Z,19168
2016-11-16T13:08:15.733Z,17888
2016-11-16T13:09:29.346Z,18464
2016-11-16T13:10:42.396Z,5396
2016-11-16T13:11:55.418Z,18688
2016-11-16T13:13:07.966Z,18944
2016-11-16T13:14:51.594Z,16864
2016-11-16T13:16:04.582Z,17088
2016-11-16T13:17:16.569Z,16704
2016-11-16T13:18:29.556Z,16032
2016-11-16T13:19:42.036Z,15744
2016-11-16T13:20:54.579Z,15776
2016-11-16T13:22:06.586Z,16000
2016-11-16T13:23:20.098Z,16000
2016-11-16T13:24:33.905Z,15584
2016-11-16T13:27:31.112Z,15648
2016-11-16T13:28:44.168Z,15264
2016-11-16T13:29:57.297Z,14816
2016-11-16T13:31:09.001Z,14760
2016-11-16T13:32:21.538Z,14788
2016-11-16T13:33:34.037Z,14784
2016-11-16T13:34:46.567Z,15456
2016-11-16T13:35:58.554Z,15680
2016-11-16T13:37:11.112Z,16096
2016-11-16T13:38:24.232Z,15808
2016-11-16T13:39:37.264Z,15328
2016-11-16T13:40:50.845Z,15488
2016-11-16T13:42:04.368Z,15712
2016-11-16T13:43:17.453Z,15712
2016-11-16T13:44:28.384Z,8564
2016-11-16T13:45:41.399Z,16416
2016-11-16T13:46:53.304Z,17248
2016-11-16T13:48:06.878Z,17504
2016-11-16T13:49:20.462Z,7840
2016-11-16T13:50:33.519Z,6660
2016-11-16T13:51:47.097Z,13388
2016-11-16T13:52:59.023Z,17920
2016-11-16T13:54:11.442Z,8100
2016-11-16T13:55:23.388Z,7804
2016-11-16T13:56:35.895Z,8004
2016-11-16T13:57:48.896Z,16064
2016-11-16T13:59:01.436Z,17728
2016-11-16T14:00:13.392Z,15136
2016-11-16T14:01:26.410Z,8564
2016-11-16T14:02:38.988Z,13660
2016-11-16T14:03:51.007Z,17600
2016-11-16T14:05:03.470Z,18688
2016-11-16T14:06:17.052Z,18560
2016-11-16T14:07:29.072Z,18368
2016-11-16T14:08:41.037Z,9532
2016-11-16T14:09:53.056Z,9632
2016-11-16T14:11:05.009Z,8924
2016-11-16T14:12:18.577Z,15808
2016-11-16T14:13:30.534Z,18048
2016-11-16T14:14:43.590Z,17888
2016-11-16T14:15:55.568Z,17632
2016-11-16T14:17:07.559Z,17536
2016-11-16T14:18:20.056Z,9288
2016-11-16T14:19:33.113Z,8624
2016-11-16T14:20:45.650Z,7904
2016-11-16T14:21:58.128Z,7612
2016-11-16T14:23:11.107Z,6932
2016-11-16T14:24:24.112Z,6516
2016-11-16T14:25:36.600Z,6096
2016-11-16T14:26:48.623Z,9896
2016-11-16T14:28:02.142Z,7572
2016-11-16T14:29:15.754Z,7960
2016-11-16T14:30:28.813Z,8412
2016-11-16T14:31:40.757Z,8940
2016-11-16T14:32:53.723Z,9492
2016-11-16T14:34:07.234Z,8972
2016-11-16T14:35:20.245Z,8936
2016-11-16T14:36:32.755Z,8204
2016-11-16T14:37:46.006Z,8192
2016-11-16T14:38:59.019Z,8344
2016-11-16T14:40:12.432Z,12040
2016-11-16T14:41:24.433Z,12436
2016-11-16T14:42:37.475Z,12576
2016-11-16T14:43:51.077Z,12968
2016-11-16T14:45:03.594Z,13392
2016-11-16T14:46:16.638Z,11044
2016-11-16T14:47:28.615Z,10516
2016-11-16T14:48:41.128Z,12892
2016-11-16T14:49:54.221Z,9624
2016-11-16T14:51:06.761Z,9240
2016-11-16T14:52:19.812Z,8884
2016-11-16T14:54:02.348Z,8380
2016-11-16T14:55:47.041Z,7888
2016-11-16T14:56:58.988Z,11024
2016-11-16T14:58:12.004Z,11208
2016-11-16T14:59:25.002Z,11324
2016-11-16T15:00:37.974Z,11372
2016-11-16T15:01:51.067Z,9480
2016-11-16T15:03:04.062Z,8140
2016-11-16T15:04:17.099Z,7788
2016-11-16T15:05:29.609Z,7612
2016-11-16T15:06:43.198Z,7144
2016-11-16T15:07:55.700Z,7200
2016-11-16T15:09:09.266Z,7928
2016-11-16T15:10:22.772Z,8876
2016-11-16T15:11:35.241Z,10092
2016-11-16T15:12:48.279Z,12180
2016-11-16T15:14:00.728Z,11916
2016-11-16T15:15:12.678Z,11528
2016-11-16T15:18:08.812Z,8492
2016-11-16T15:19:20.779Z,10616
2016-11-16T15:20:33.799Z,7100
2016-11-16T15:21:46.303Z,7208
2016-11-16T15:22:59.348Z,8072
2016-11-16T15:24:12.347Z,11320
2016-11-16T15:25:24.817Z,9324
2016-11-16T15:26:38.400Z,8276
2016-11-16T15:27:50.928Z,11580
2016-11-16T15:29:02.964Z,8140
2016-11-16T15:30:15.467Z,7592
2016-11-16T15:31:28.977Z,7220
2016-11-16T15:32:41.982Z,10388
2016-11-16T15:33:54.495Z,10368
2016-11-16T15:35:05.929Z,10124
2016-11-16T15:36:19.002Z,9644
2016-11-16T15:37:31.451Z,6696
2016-11-16T15:38:45.013Z,10084
2016-11-16T15:39:56.504Z,6760
2016-11-16T15:41:08.984Z,9792
2016-11-16T15:42:21.483Z,9600
2016-11-16T15:43:33.396Z,6360
2016-11-16T15:44:46.460Z,6660
2016-11-16T15:45:58.430Z,7220
2016-11-16T15:47:10.978Z,8056
2016-11-16T15:48:22.936Z,11316
2016-11-16T15:49:35.449Z,11384
2016-11-16T15:50:49.001Z,11340
2016-11-16T15:52:02.525Z,7780
2016-11-16T15:53:15.561Z,7228
2016-11-16T15:54:29.077Z,6740
2016-11-16T15:55:41.055Z,6684
2016-11-16T15:56:53.003Z,6900
2016-11-16T15:58:05.582Z,10436
2016-11-16T15:59:18.609Z,11000
2016-11-16T16:00:29.991Z,11648
2016-11-16T16:01:43.003Z,9048
2016-11-16T16:02:55.555Z,8968
2016-11-16T16:04:08.029Z,10456
2016-11-16T16:05:20.511Z,9092
2016-11-16T16:06:33.584Z,12236
2016-11-16T16:07:47.147Z,12060
2016-11-16T16:09:00.254Z,8716
2016-11-16T16:10:13.802Z,8724
2016-11-16T16:11:25.741Z,11492
2016-11-16T16:12:38.254Z,11136
2016-11-16T16:13:51.313Z,7380
2016-11-16T16:15:03.282Z,7372
2016-11-16T16:16:16.257Z,10568
2016-11-16T16:18:00.374Z,8236
2016-11-16T16:19:12.400Z,11108
2016-11-16T16:20:24.844Z,9072
2016-11-16T16:21:37.869Z,8656
2016-11-16T16:22:49.815Z,10516
2016-11-16T16:24:02.348Z,11464
2016-11-16T16:25:15.396Z,11368
2016-11-16T16:26:27.938Z,10940
2016-11-16T16:27:39.890Z,10700
2016-11-16T16:28:52.422Z,10876
2016-11-16T16:30:05.453Z,10888
2016-11-16T16:31:19.052Z,7680
2016-11-16T16:32:31.565Z,6532
2016-11-16T16:33:44.599Z,5712
2016-11-16T16:34:58.190Z,5524
2016-11-16T16:36:10.663Z,5160
2016-11-16T16:37:23.658Z,5488
2016-11-16T16:38:35.614Z,5704
2016-11-16T16:39:47.548Z,5796
2016-11-16T16:40:59.572Z,6016
2016-11-16T16:42:12.542Z,6144
2016-11-16T16:43:25.575Z,6144
2016-11-16T16:44:38.563Z,8748
2016-11-16T16:45:51.037Z,9932
2016-11-16T16:47:04.094Z,10596
2016-11-16T16:48:16.562Z,9652
2016-11-16T16:49:28.613Z,10752
2016-11-16T16:50:40.537Z,7980
2016-11-16T16:51:52.021Z,10144
2016-11-16T16:53:04.526Z,8696
2016-11-16T16:54:16.506Z,9184
2016-11-16T16:55:30.009Z,8924
2016-11-16T16:56:43.015Z,8996
2016-11-16T16:57:56.014Z,9016
2016-11-16T16:59:09.516Z,6276
2016-11-16T17:00:22.600Z,6192
2016-11-16T17:01:35.153Z,6708
2016-11-16T17:02:47.143Z,6348
2016-11-16T17:04:00.667Z,6596
2016-11-16T17:05:13.636Z,7168
2016-11-16T17:06:26.146Z,6252
2016-11-16T17:07:37.600Z,6068
2016-11-16T17:08:50.059Z,5732